Terminal Aerodrome Forecast
Issued by NWS

Home | Current Version | Previous Version | Text Only | Print | Product List | Glossary On
Versions: 1 2 3 4 5 6 7 8 9 10 11 12 13 14 15 16 17
000
FTUS41 KBOX 060535
TAFFMH
TAF
KFMH 060535Z 0606/0706 29004KT P6SM SKC
     FM061400 36007KT P6SM FEW250
     FM061800 04008KT P6SM FEW250
     FM062300 07006KT P6SM BKN100
     FM070500 07004KT P6SM VCSH OVC040=

USA.gov is the U.S. government's official web portal to all federal, state and local government web resources and services.